Time;durP1;ratioP1;P1;durP2;ratioP2;P2;SDS_P1;SDS_P2;PMS_P1;PMS_P2;Temp;Humidity;BMP_temperature;BMP_pressure;BME280_temperature;BME280_humidity;BME280_pressure;Samples;Min_cycle;Max_cycle;Signal;HPM_P1;HPM_P2
2023/07/27 00:00:15;;;;;;;0.80;0.80;;;14.50;99.90;;;;;;4762703;30;20047;-88
2023/07/27 00:02:41;;;;;;;0.80;0.80;;;14.50;99.90;;;;;;4775989;29;20055;-89
2023/07/27 00:05:07;;;;;;;0.80;0.80;;;14.70;99.90;;;;;;4774847;30;20063;-88
2023/07/27 00:07:32;;;;;;;0.80;0.80;;;14.60;99.90;;;;;;4762904;30;20051;-90
2023/07/27 00:09:58;;;;;;;0.80;0.80;;;14.50;99.90;;;;;;4763956;30;20055;-89
2023/07/27 00:12:24;;;;;;;0.75;0.75;;;14.40;99.90;;;;;;4763327;30;20127;-89
2023/07/27 00:14:51;;;;;;;0.75;0.75;;;14.30;99.90;;;;;;4759843;30;20622;-89
2023/07/27 00:17:17;;;;;;;0.80;0.80;;;14.30;99.90;;;;;;4777639;30;20054;-89
2023/07/27 00:19:43;;;;;;;0.70;0.70;;;14.50;99.90;;;;;;4763720;30;20055;-89
2023/07/27 00:22:09;;;;;;;0.70;0.70;;;14.40;99.90;;;;;;4763951;30;20058;-90
2023/07/27 00:24:35;;;;;;;0.70;0.70;;;14.50;99.90;;;;;;4760808;30;20585;-89
2023/07/27 00:27:01;;;;;;;0.70;0.70;;;14.50;99.90;;;;;;4760599;30;20108;-89
2023/07/27 00:29:27;;;;;;;0.70;0.70;;;14.50;99.90;;;;;;4763519;29;20160;-89
2023/07/27 00:31:52;;;;;;;0.70;0.70;;;14.40;99.90;;;;;;4761730;30;20052;-88
2023/07/27 00:34:18;;;;;;;0.70;0.70;;;14.40;99.90;;;;;;4761142;30;20135;-89
2023/07/27 00:36:44;;;;;;;0.70;0.70;;;14.50;99.90;;;;;;4777162;30;20051;-89
2023/07/27 00:39:13;;;;;;;0.70;0.70;;;14.40;99.90;;;;;;4790952;29;20155;-89
2023/07/27 00:41:45;;;;;;;0.75;0.75;;;14.50;99.90;;;;;;4777426;29;20055;-90
2023/07/27 00:44:13;;;;;;;0.70;0.70;;;14.50;99.90;;;;;;4778540;29;20745;-91
2023/07/27 00:46:39;;;;;;;0.70;0.70;;;14.40;99.90;;;;;;4763662;30;20569;-90
2023/07/27 00:49:06;;;;;;;0.70;0.70;;;14.50;99.90;;;;;;4761498;30;20505;-90
2023/07/27 00:51:37;;;;;;;0.70;0.70;;;14.50;99.90;;;;;;4780634;29;20096;-89
2023/07/27 00:54:05;;;;;;;0.70;0.70;;;14.40;99.90;;;;;;4777864;29;20058;-90
2023/07/27 00:56:32;;;;;;;0.70;0.70;;;14.50;99.90;;;;;;4766429;30;20582;-91
2023/07/27 00:59:05;;;;;;;0.70;0.70;;;14.40;99.90;;;;;;4781641;29;20043;-92
2023/07/27 01:01:31;;;;;;;0.63;0.63;;;14.50;99.90;;;;;;4765797;30;20058;-91
2023/07/27 01:03:57;;;;;;;0.70;0.70;;;14.50;99.90;;;;;;4768643;30;20504;-90
2023/07/27 01:06:24;;;;;;;0.70;0.70;;;14.60;99.90;;;;;;4768427;30;20057;-90
2023/07/27 01:08:51;;;;;;;0.70;0.70;;;14.50;99.90;;;;;;4780163;30;20678;-90
2023/07/27 01:11:24;;;;;;;0.70;0.70;;;14.40;99.90;;;;;;4779126;30;20113;-91
2023/07/27 01:14:13;;;;;;;0.70;0.70;;;14.40;99.90;;;;;;4765658;30;20126;-90
2023/07/27 01:17:03;;;;;;;0.65;0.65;;;14.40;99.90;;;;;;4781458;29;20054;-88
2023/07/27 01:20:08;;;;;;;0.60;0.60;;;14.30;99.90;;;;;;4765025;30;20058;-89
2023/07/27 01:22:33;;;;;;;;;;;14.40;99.90;;;;;;4777056;30;20612;-89
2023/07/27 01:25:17;;;;;;;0.60;0.60;;;14.40;99.90;;;;;;4764847;30;19933;-89
2023/07/27 01:28:15;;;;;;;0.70;0.70;;;14.40;99.90;;;;;;4766071;30;20051;-89
2023/07/27 01:30:57;;;;;;;0.60;0.60;;;14.40;99.90;;;;;;4777662;30;20051;-89
2023/07/27 01:33:32;;;;;;;0.70;0.70;;;14.30;99.90;;;;;;4764989;30;20144;-90
2023/07/27 01:36:01;;;;;;;0.70;0.70;;;14.20;99.90;;;;;;4763553;30;20064;-91
2023/07/27 01:38:30;;;;;;;0.70;0.70;;;14.20;99.90;;;;;;4764876;30;20051;-89
2023/07/27 01:40:57;;;;;;;0.70;0.70;;;14.10;99.90;;;;;;4776108;30;20113;-89
2023/07/27 01:43:26;;;;;;;0.70;0.70;;;14.10;99.90;;;;;;4776452;29;20059;-90
2023/07/27 01:45:53;;;;;;;0.70;0.70;;;14.10;99.90;;;;;;4775972;30;20063;-89
2023/07/27 01:48:21;;;;;;;0.70;0.70;;;14.10;99.90;;;;;;4765592;29;20599;-90
2023/07/27 01:50:48;;;;;;;0.70;0.70;;;14.10;99.90;;;;;;4762955;29;20051;-89
2023/07/27 01:53:15;;;;;;;0.80;0.80;;;14.10;99.90;;;;;;4766797;30;20059;-90
2023/07/27 01:55:42;;;;;;;0.80;0.80;;;14.10;99.90;;;;;;4761925;30;20426;-88
2023/07/27 01:58:09;;;;;;;0.70;0.70;;;14.10;99.90;;;;;;4776818;30;20130;-89
2023/07/27 02:00:35;;;;;;;0.80;0.80;;;14.20;99.90;;;;;;4779650;29;20050;-88
2023/07/27 02:03:02;;;;;;;0.80;0.80;;;14.30;99.90;;;;;;4777523;30;20070;-89
2023/07/27 02:05:27;;;;;;;0.80;0.80;;;14.20;99.90;;;;;;4762467;29;20514;-89
2023/07/27 02:07:53;;;;;;;0.80;0.80;;;14.20;99.90;;;;;;4763929;30;20059;-89
2023/07/27 02:10:20;;;;;;;0.80;0.80;;;14.20;99.90;;;;;;4776875;30;20054;-88
2023/07/27 02:12:57;;;;;;;0.80;0.80;;;14.10;99.90;;;;;;4761839;30;20062;-88
2023/07/27 02:15:32;;;;;;;0.80;0.80;;;14.20;99.90;;;;;;4762048;29;20564;-89
2023/07/27 02:18:04;;;;;;;0.75;0.75;;;14.20;99.90;;;;;;4792943;29;20047;-89
2023/07/27 02:20:34;;;;;;;0.80;0.80;;;14.20;99.90;;;;;;4765156;30;20055;-88
2023/07/27 02:23:03;;;;;;;0.80;0.80;;;14.20;99.90;;;;;;4762265;30;20569;-89
2023/07/27 02:25:28;;;;;;;0.80;0.80;;;14.20;99.90;;;;;;4764987;30;20055;-90
2023/07/27 02:27:54;;;;;;;0.80;0.80;;;14.40;99.90;;;;;;4763392;29;20117;-90
2023/07/27 02:30:20;;;;;;;0.80;0.80;;;14.50;99.90;;;;;;4759354;29;21226;-91
2023/07/27 02:32:46;;;;;;;0.80;0.80;;;14.40;99.90;;;;;;4761405;30;20078;-90
2023/07/27 02:35:12;;;;;;;0.90;0.90;;;14.30;99.90;;;;;;4760741;30;20074;-90
2023/07/27 02:37:38;;;;;;;0.90;0.90;;;14.30;99.90;;;;;;4762401;30;20047;-91
2023/07/27 02:40:04;;;;;;;0.82;0.82;;;14.20;99.90;;;;;;4765262;30;20108;-90
2023/07/27 02:42:30;;;;;;;0.90;0.90;;;14.30;99.90;;;;;;4759660;30;20117;-90
2023/07/27 02:44:55;;;;;;;0.90;0.90;;;14.20;99.90;;;;;;4764639;30;20055;-93
2023/07/27 02:47:21;;;;;;;0.90;0.90;;;14.30;99.90;;;;;;4765109;30;20077;-92
2023/07/27 02:49:47;;;;;;;0.93;0.93;;;14.40;99.90;;;;;;4762142;30;20047;-89
2023/07/27 02:52:13;;;;;;;0.95;0.95;;;14.50;99.90;;;;;;4762845;30;20122;-90
2023/07/27 02:54:38;;;;;;;0.85;0.85;;;14.40;99.90;;;;;;4763236;30;20051;-91
2023/07/27 02:57:04;;;;;;;1.00;1.00;;;14.50;99.90;;;;;;4763669;30;20062;-88
2023/07/27 02:59:30;;;;;;;1.05;1.05;;;14.50;99.90;;;;;;4761734;30;20054;-88
2023/07/27 03:01:56;;;;;;;0.90;0.90;;;14.50;99.90;;;;;;4758179;30;20075;-90
2023/07/27 03:04:22;;;;;;;1.05;1.05;;;14.50;99.90;;;;;;4776104;30;20093;-88
2023/07/27 03:06:48;;;;;;;1.00;1.00;;;14.50;99.90;;;;;;4763849;30;20055;-89
2023/07/27 03:09:14;;;;;;;1.00;1.00;;;14.50;99.90;;;;;;4777775;30;20047;-89
2023/07/27 03:11:40;;;;;;;0.90;0.90;;;14.50;99.90;;;;;;4773235;30;20563;-89
2023/07/27 03:14:05;;;;;;;1.00;1.00;;;14.60;99.90;;;;;;4760816;30;20114;-88
2023/07/27 03:16:31;;;;;;;1.00;1.00;;;14.50;99.90;;;;;;4768992;29;20596;-89
2023/07/27 03:18:57;;;;;;;1.02;1.02;;;14.40;99.90;;;;;;4760333;30;20063;-90
2023/07/27 03:21:23;;;;;;;1.10;1.10;;;14.50;99.90;;;;;;4776898;30;20512;-90
2023/07/27 03:23:52;;;;;;;1.10;1.10;;;14.50;99.90;;;;;;4764959;30;20119;-92
2023/07/27 03:26:23;;;;;;;1.10;1.10;;;14.40;99.90;;;;;;4762335;30;20059;-90
2023/07/27 03:28:49;;;;;;;1.10;1.10;;;14.50;99.90;;;;;;4774794;30;20058;-86
2023/07/27 03:31:26;;;;;;;1.10;1.10;;;14.60;99.90;;;;;;4775748;30;20039;-93
2023/07/27 03:34:03;;;;;;;1.10;1.10;;;14.50;99.90;;;;;;4781565;30;20505;-94
2023/07/27 03:36:35;;;;;;;1.40;1.30;;;14.40;99.90;;;;;;4767998;30;20043;-96
2023/07/27 03:39:10;;;;;;;1.10;1.10;;;14.50;99.90;;;;;;4769688;30;20540;-96
2023/07/27 03:41:36;;;;;;;1.10;1.10;;;14.40;99.90;;;;;;4766962;30;20129;-94
2023/07/27 03:44:11;;;;;;;1.10;1.10;;;14.40;99.90;;;;;;4771983;30;20159;-91
2023/07/27 03:46:37;;;;;;;1.05;1.05;;;14.30;99.90;;;;;;4784071;30;20055;-93
2023/07/27 03:49:04;;;;;;;1.10;1.10;;;14.50;99.90;;;;;;4768713;30;20134;-93
2023/07/27 03:51:30;;;;;;;1.00;1.00;;;14.40;99.90;;;;;;4784797;30;20051;-93
2023/07/27 03:53:56;;;;;;;1.00;1.00;;;14.30;99.90;;;;;;4769789;29;20055;-92
2023/07/27 03:56:29;;;;;;;1.00;1.00;;;14.30;99.90;;;;;;4784142;30;20051;-95
2023/07/27 03:58:54;;;;;;;1.10;1.10;;;14.40;99.90;;;;;;4766858;30;20824;-93
2023/07/27 04:01:23;;;;;;;1.00;1.00;;;14.30;99.90;;;;;;4768510;30;20060;-94
2023/07/27 04:03:59;;;;;;;;;;;;;;;;;;;;;
2023/07/27 04:10:49;;;;;;;1.00;1.00;;;14.40;99.90;;;;;;4734882;30;20052;-95
2023/07/27 04:13:14;;;;;;;1.00;1.00;;;14.30;99.90;;;;;;4732271;30;20067;-92
2023/07/27 04:18:52;;;;;;;1.10;1.10;;;14.50;99.90;;;;;;4761200;30;20075;-95
2023/07/27 04:21:20;;;;;;;1.10;1.10;;;14.60;99.90;;;;;;4769008;30;20077;-96
2023/07/27 04:26:55;;;;;;;0.90;0.90;;;14.50;99.90;;;;;;4779761;29;20098;-96
2023/07/27 04:40:23;;;;;;;1.02;1.02;;;14.50;99.90;;;;;;4665972;30;20053;-96
2023/07/27 04:43:12;;;;;;;1.15;1.15;;;14.40;99.90;;;;;;4645008;30;21140;-96
2023/07/27 04:45:48;;;;;;;1.20;1.20;;;14.60;99.90;;;;;;4715489;30;20178;-96
2023/07/27 04:52:27;;;;;;;1.13;1.13;;;14.60;99.90;;;;;;4692168;30;20463;-95
2023/07/27 04:54:53;;;;;;;1.25;1.25;;;14.50;99.90;;;;;;4682951;30;20171;-92
2023/07/27 04:57:19;;;;;;;1.35;1.33;;;14.60;99.90;;;;;;4700723;30;20559;-92
2023/07/27 04:59:45;;;;;;;1.55;1.45;;;14.60;99.90;;;;;;4777441;30;20064;-91
2023/07/27 05:02:10;;;;;;;1.60;1.50;;;14.50;99.90;;;;;;4764384;30;20581;-92
2023/07/27 05:04:42;;;;;;;1.63;1.52;;;14.60;99.90;;;;;;4769075;30;20055;-92
2023/07/27 05:07:08;;;;;;;1.75;1.65;;;14.70;99.90;;;;;;4769997;30;20047;-91
2023/07/27 05:09:36;;;;;;;1.75;1.65;;;14.70;99.90;;;;;;4770901;30;20134;-95
2023/07/27 05:12:02;;;;;;;1.85;1.75;;;14.70;99.90;;;;;;4769873;30;20083;-93
2023/07/27 05:14:27;;;;;;;1.95;1.85;;;14.70;99.90;;;;;;4768514;30;20614;-93
2023/07/27 05:16:53;;;;;;;1.95;1.85;;;14.60;99.90;;;;;;4771766;30;20514;-92
2023/07/27 05:19:19;;;;;;;1.95;1.85;;;14.80;99.90;;;;;;4771410;30;20115;-94
2023/07/27 05:21:44;;;;;;;1.92;1.83;;;14.70;99.90;;;;;;4770341;30;20059;-92
2023/07/27 05:24:10;;;;;;;1.88;1.77;;;14.90;99.90;;;;;;4769905;30;20063;-94
2023/07/27 05:26:39;;;;;;;1.95;1.85;;;14.90;99.90;;;;;;4769050;30;20050;-90
2023/07/27 05:29:05;;;;;;;2.00;1.90;;;14.90;99.90;;;;;;4793580;29;20051;-89
2023/07/27 05:31:30;;;;;;;2.00;1.90;;;14.80;99.90;;;;;;4780515;30;20055;-91
2023/07/27 05:33:56;;;;;;;1.92;1.83;;;14.80;99.90;;;;;;4764883;30;20561;-88
2023/07/27 05:36:22;;;;;;;1.88;1.77;;;14.90;99.90;;;;;;4763832;30;20430;-90
2023/07/27 05:38:51;;;;;;;1.85;1.75;;;14.80;99.90;;;;;;4776301;29;20138;-87
2023/07/27 05:41:16;;;;;;;1.77;1.67;;;14.70;99.90;;;;;;4777122;29;20051;-88
2023/07/27 05:43:42;;;;;;;1.85;1.75;;;14.80;99.90;;;;;;4775698;29;20062;-84
2023/07/27 05:46:07;;;;;;;1.83;1.73;;;14.50;99.90;;;;;;4776397;30;20054;-87
2023/07/27 05:48:34;;;;;;;1.70;1.60;;;14.50;99.90;;;;;;4776115;29;20066;-90
2023/07/27 05:50:59;;;;;;;2.20;1.63;;;14.70;99.90;;;;;;4765702;30;20402;-91
2023/07/27 05:53:25;;;;;;;1.58;1.48;;;14.80;99.90;;;;;;4765106;30;20047;-90
2023/07/27 05:55:51;;;;;;;1.60;1.50;;;14.70;99.90;;;;;;4780096;30;20039;-88
2023/07/27 05:58:16;;;;;;;1.55;1.45;;;14.50;99.90;;;;;;4782863;30;20544;-88
2023/07/27 06:00:42;;;;;;;1.52;1.45;;;14.50;99.90;;;;;;4766879;30;20126;-92
2023/07/27 06:03:08;;;;;;;1.48;1.40;;;14.70;99.90;;;;;;4762991;30;20058;-89
2023/07/27 06:05:34;;;;;;;1.52;1.42;;;14.60;99.90;;;;;;4767998;30;20708;-92
2023/07/27 06:08:02;;;;;;;1.50;1.40;;;14.50;99.90;;;;;;4770246;30;20047;-92
2023/07/27 06:10:39;;;;;;;1.55;1.45;;;14.80;99.90;;;;;;4770441;30;20058;-95
2023/07/27 06:13:23;;;;;;;1.30;1.30;;;14.80;99.90;;;;;;4770486;30;20098;-96
2023/07/27 06:15:49;;;;;;;1.30;1.30;;;14.80;99.90;;;;;;4769714;30;20053;-92
2023/07/27 06:18:21;;;;;;;1.30;1.30;;;14.60;99.90;;;;;;4783526;30;20119;-96
2023/07/27 06:21:00;;;;;;;1.30;1.30;;;14.50;99.90;;;;;;4769271;30;20054;-95
2023/07/27 06:23:28;;;;;;;1.20;1.20;;;14.60;99.90;;;;;;4769866;30;20055;-93
2023/07/27 06:26:03;;;;;;;1.20;1.20;;;14.80;99.90;;;;;;4770184;30;20096;-95
2023/07/27 06:28:29;;;;;;;1.20;1.20;;;14.80;99.90;;;;;;4778162;29;20060;-92
2023/07/27 06:30:54;;;;;;;1.10;1.10;;;14.60;99.90;;;;;;4764526;30;20062;-94
2023/07/27 06:33:20;;;;;;;1.10;1.10;;;14.80;99.90;;;;;;4764090;30;20051;-93
2023/07/27 06:35:49;;;;;;;1.10;1.10;;;14.70;99.90;;;;;;4765157;30;20701;-94
2023/07/27 06:38:15;;;;;;;1.00;1.00;;;14.70;99.90;;;;;;4764904;30;20055;-94
2023/07/27 06:40:41;;;;;;;1.10;1.10;;;15.00;99.90;;;;;;4762389;30;20058;-92
2023/07/27 06:43:07;;;;;;;1.00;1.00;;;14.70;99.90;;;;;;4780287;30;20400;-93
2023/07/27 06:45:34;;;;;;;1.00;1.00;;;14.90;99.90;;;;;;4779515;29;20051;-91
2023/07/27 06:48:00;;;;;;;1.00;1.00;;;14.90;99.90;;;;;;4779407;29;20062;-90
2023/07/27 06:50:31;;;;;;;0.90;0.90;;;14.90;99.90;;;;;;4764634;29;20135;-96
2023/07/27 06:52:57;;;;;;;0.90;0.90;;;14.90;99.90;;;;;;4762037;30;20128;-94
2023/07/27 06:55:23;;;;;;;1.00;1.00;;;15.10;99.90;;;;;;4780305;30;20051;-92
2023/07/27 06:57:48;;;;;;;1.00;1.00;;;15.30;99.90;;;;;;4767972;30;20073;-93
2023/07/27 07:00:14;;;;;;;0.90;0.90;;;15.00;99.90;;;;;;4769564;30;20047;-93
2023/07/27 07:02:40;;;;;;;0.80;0.80;;;15.10;99.90;;;;;;4767530;30;20862;-91
2023/07/27 07:05:06;;;;;;;0.90;0.90;;;15.20;99.90;;;;;;4780435;30;20078;-89
2023/07/27 07:07:32;;;;;;;0.80;0.80;;;15.00;99.90;;;;;;4782262;30;20131;-90
2023/07/27 07:10:01;;;;;;;0.80;0.80;;;15.20;99.90;;;;;;4769542;30;20062;-92
2023/07/27 07:12:30;;;;;;;0.82;0.82;;;15.20;99.90;;;;;;4783346;30;20062;-95
2023/07/27 07:14:55;;;;;;;0.80;0.80;;;15.30;99.90;;;;;;4767791;30;20808;-91
2023/07/27 07:17:21;;;;;;;0.93;0.93;;;15.60;99.90;;;;;;4778866;30;20058;-89
2023/07/27 07:19:47;;;;;;;0.90;0.90;;;15.60;99.90;;;;;;4780021;30;20051;-91
2023/07/27 07:22:13;;;;;;;0.80;0.80;;;15.60;99.90;;;;;;4767844;30;20100;-92
2023/07/27 07:24:38;;;;;;;1.10;1.10;;;15.50;99.90;;;;;;4782157;29;20051;-94
2023/07/27 07:27:04;;;;;;;1.00;1.00;;;15.20;99.90;;;;;;4764862;30;20043;-91
2023/07/27 07:29:30;;;;;;;1.00;1.00;;;15.20;99.90;;;;;;4759143;30;20055;-90
2023/07/27 07:31:55;;;;;;;1.00;1.00;;;15.40;99.90;;;;;;4765787;30;20139;-93
2023/07/27 07:34:21;;;;;;;1.00;1.00;;;15.30;99.90;;;;;;4767049;30;20055;-92
2023/07/27 07:36:47;;;;;;;1.20;1.20;;;15.50;99.90;;;;;;4765489;30;20055;-91
2023/07/27 07:39:12;;;;;;;1.27;1.27;;;15.20;99.90;;;;;;4764305;30;20091;-91
2023/07/27 07:41:38;;;;;;;1.30;1.30;;;15.30;99.90;;;;;;4767688;30;20475;-91
2023/07/27 07:44:04;;;;;;;1.13;1.13;;;15.10;99.90;;;;;;4768085;30;20340;-94
2023/07/27 07:46:30;;;;;;;1.40;1.35;;;15.60;99.90;;;;;;4783963;30;20489;-92
2023/07/27 07:48:57;;;;;;;1.30;1.30;;;15.50;99.90;;;;;;4764826;30;20506;-92
2023/07/27 07:51:26;;;;;;;1.10;1.10;;;15.50;99.90;;;;;;4765204;30;20043;-94
2023/07/27 07:53:52;;;;;;;1.08;1.08;;;15.50;99.90;;;;;;4768339;30;20062;-91
2023/07/27 07:56:18;;;;;;;1.10;1.10;;;15.20;99.90;;;;;;4781975;30;20527;-89
2023/07/27 07:58:47;;;;;;;1.20;1.20;;;15.60;99.90;;;;;;4766857;30;20069;-93
2023/07/27 08:01:39;;;;;;;1.10;1.10;;;15.10;99.90;;;;;;4769682;30;20141;-92
2023/07/27 08:04:05;;;;;;;1.08;1.08;;;15.30;99.90;;;;;;4758414;30;20532;-93
2023/07/27 08:06:33;;;;;;;1.17;1.17;;;15.70;99.90;;;;;;4768498;30;20047;-93
2023/07/27 08:12:20;;;;;;;1.52;1.42;;;15.40;99.90;;;;;;4729162;30;20057;-96
2023/07/27 08:14:48;;;;;;;1.38;1.33;;;15.70;99.90;;;;;;4734559;30;20143;-93
2023/07/27 08:17:19;;;;;;;1.38;1.35;;;15.30;99.90;;;;;;4769644;30;20134;-96
2023/07/27 08:19:45;;;;;;;1.65;1.55;;;15.90;99.90;;;;;;4766189;30;20054;-93
2023/07/27 08:22:11;;;;;;;1.42;1.35;;;15.70;99.90;;;;;;4781929;30;20047;-91
2023/07/27 08:24:37;;;;;;;1.58;1.48;;;15.80;99.90;;;;;;4762952;30;20055;-90
2023/07/27 08:27:05;;;;;;;1.42;1.38;;;15.50;99.90;;;;;;4782044;30;20089;-88
2023/07/27 08:29:49;;;;;;;1.50;1.42;;;15.40;99.90;;;;;;4784801;29;20051;-96
2023/07/27 08:32:14;;;;;;;1.80;1.70;;;15.90;99.90;;;;;;4766977;30;20082;-90
2023/07/27 08:34:40;;;;;;;1.63;1.52;;;15.70;99.90;;;;;;4781546;29;20086;-92
2023/07/27 08:37:06;;;;;;;1.65;1.55;;;15.60;99.90;;;;;;4780821;30;20063;-91
2023/07/27 08:39:41;;;;;;;1.33;1.30;;;15.30;99.90;;;;;;4783108;30;20153;-93
2023/07/27 08:42:08;;;;;;;1.55;1.45;;;15.70;99.90;;;;;;4765964;30;20044;-91
2023/07/27 08:44:34;;;;;;;1.25;1.25;;;16.00;99.90;;;;;;4768130;30;20086;-91
2023/07/27 08:47:00;;;;;;;1.40;1.35;;;16.10;99.90;;;;;;4766459;30;20895;-91
2023/07/27 08:49:29;;;;;;;1.50;1.42;;;16.10;99.90;;;;;;4782067;30;20043;-94
2023/07/27 08:51:54;;;;;;;1.48;1.40;;;16.00;99.90;;;;;;4766966;30;20217;-92
2023/07/27 08:54:20;;;;;;;1.30;1.30;;;15.70;99.90;;;;;;4766850;30;20570;-92
2023/07/27 08:56:55;;;;;;;1.17;1.17;;;16.10;99.90;;;;;;4764754;30;20043;-96
2023/07/27 08:59:30;;;;;;;1.23;1.23;;;15.70;99.90;;;;;;4782899;30;20506;-95
2023/07/27 09:01:56;;;;;;;1.25;1.25;;;16.20;99.90;;;;;;4765528;30;20047;-91
2023/07/27 09:04:22;;;;;;;0.98;0.98;;;16.30;99.90;;;;;;4782531;30;20635;-91
2023/07/27 09:06:50;;;;;;;1.05;1.05;;;16.40;99.90;;;;;;4779276;30;20047;-88
2023/07/27 09:09:23;;;;;;;0.98;0.98;;;16.50;99.90;;;;;;4763426;30;20044;-90
2023/07/27 09:11:54;;;;;;;0.90;0.90;;;16.50;99.90;;;;;;4764283;30;20066;-93
2023/07/27 09:14:20;;;;;;;0.90;0.90;;;16.60;99.90;;;;;;4767574;30;20055;-91
2023/07/27 09:16:48;;;;;;;0.70;0.70;;;16.80;99.90;;;;;;4785505;29;20058;-92
2023/07/27 09:19:18;;;;;;;0.70;0.70;;;16.90;99.90;;;;;;4772396;30;20084;-94
2023/07/27 09:22:02;;;;;;;;;;;;;;;;;;;;;
2023/07/27 09:25:05;;;;;;;0.60;0.60;;;16.60;99.90;;;;;;4785836;29;20206;-90
2023/07/27 09:27:44;;;;;;;0.70;0.70;;;17.00;99.90;;;;;;4768494;30;20047;-94
2023/07/27 09:30:12;;;;;;;0.73;0.73;;;17.40;99.90;;;;;;4770103;30;20051;-94
2023/07/27 09:32:38;;;;;;;0.70;0.70;;;17.20;99.90;;;;;;4786149;30;20039;-92
2023/07/27 09:35:36;;;;;;;0.70;0.70;;;17.40;99.90;;;;;;4769215;30;20055;-94
2023/07/27 09:38:02;;;;;;;0.65;0.65;;;17.30;99.90;;;;;;4770920;30;20658;-91
2023/07/27 09:40:32;;;;;;;0.60;0.60;;;17.30;99.90;;;;;;4768907;30;20058;-88
2023/07/27 09:42:58;;;;;;;0.70;0.70;;;17.40;99.90;;;;;;4782306;30;20271;-88
2023/07/27 09:45:23;;;;;;;0.60;0.60;;;16.90;99.90;;;;;;4784021;30;20047;-91
2023/07/27 09:47:51;;;;;;;0.65;0.65;;;16.90;99.90;;;;;;4769472;30;20204;-91
2023/07/27 09:50:18;;;;;;;0.70;0.70;;;16.90;99.90;;;;;;4769379;30;20051;-92
2023/07/27 09:52:45;;;;;;;0.77;0.77;;;17.20;99.90;;;;;;4785525;30;20047;-93
2023/07/27 09:55:12;;;;;;;0.63;0.63;;;17.30;99.90;;;;;;4771008;29;20154;-88
2023/07/27 09:57:42;;;;;;;0.60;0.60;;;17.70;99.90;;;;;;4783168;29;20281;-95
2023/07/27 10:00:17;;;;;;;0.80;0.80;;;17.20;99.90;;;;;;4784887;29;20062;-96
2023/07/27 10:03:01;;;;;;;0.70;0.70;;;17.50;99.90;;;;;;4774133;30;20055;-95
2023/07/27 10:05:28;;;;;;;0.70;0.70;;;17.60;99.90;;;;;;4769023;30;20486;-95
2023/07/27 10:07:55;;;;;;;0.70;0.70;;;17.80;99.90;;;;;;4769173;30;20078;-89
2023/07/27 10:10:26;;;;;;;0.70;0.70;;;17.70;99.90;;;;;;4768761;30;20088;-91
2023/07/27 10:12:56;;;;;;;0.70;0.70;;;17.80;99.90;;;;;;4782577;30;20055;-90
2023/07/27 10:15:27;;;;;;;0.75;0.75;;;17.90;99.90;;;;;;4779983;30;20128;-91
2023/07/27 10:17:59;;;;;;;0.70;0.70;;;17.50;99.90;;;;;;4766971;30;20158;-93
2023/07/27 10:20:33;;;;;;;0.70;0.70;;;17.90;99.90;;;;;;4777056;30;20118;-89
2023/07/27 10:23:25;;;;;;;0.68;0.68;;;18.20;99.90;;;;;;4766981;30;20127;-89
2023/07/27 10:25:56;;;;;;;0.77;0.77;;;18.50;99.90;;;;;;4766434;30;20052;-88
2023/07/27 10:28:38;;;;;;;0.70;0.70;;;18.60;99.90;;;;;;4785999;29;20061;-90
2023/07/27 10:31:24;;;;;;;0.70;0.70;;;18.60;99.90;;;;;;4765677;30;20138;-88
2023/07/27 10:34:02;;;;;;;0.80;0.80;;;18.50;99.90;;;;;;4780227;29;20086;-87
2023/07/27 10:36:57;;;;;;;0.80;0.80;;;18.20;99.90;;;;;;4777668;30;20051;-90
2023/07/27 10:39:26;;;;;;;0.90;0.90;;;18.30;99.90;;;;;;4768238;30;20055;-90
2023/07/27 10:42:00;;;;;;;0.90;0.90;;;18.40;99.90;;;;;;4765465;30;20086;-90
2023/07/27 10:44:47;;;;;;;0.80;0.80;;;18.10;99.90;;;;;;4794460;29;20134;-87
2023/07/27 10:47:27;;;;;;;0.90;0.90;;;18.50;99.90;;;;;;4778797;30;20059;-88
2023/07/27 10:49:57;;;;;;;0.88;0.88;;;18.40;99.90;;;;;;4762419;30;20059;-90
2023/07/27 10:52:30;;;;;;;0.90;0.90;;;18.20;99.90;;;;;;4779509;29;20059;-88
2023/07/27 10:54:58;;;;;;;0.80;0.80;;;18.30;99.90;;;;;;4764238;30;20055;-86
2023/07/27 10:57:29;;;;;;;0.90;0.90;;;18.30;99.90;;;;;;4780056;29;20392;-91
2023/07/27 10:59:54;;;;;;;0.80;0.80;;;18.60;99.90;;;;;;4777441;30;20158;-88
2023/07/27 11:02:29;;;;;;;0.90;0.90;;;18.20;99.90;;;;;;4779182;30;20657;-89
2023/07/27 11:04:56;;;;;;;0.82;0.82;;;18.10;99.90;;;;;;4779163;30;20043;-88
2023/07/27 11:07:32;;;;;;;0.93;0.93;;;18.30;99.90;;;;;;4763853;30;20065;-89
2023/07/27 11:09:59;;;;;;;0.90;0.90;;;18.00;99.90;;;;;;4765561;30;20051;-87
2023/07/27 11:12:25;;;;;;;0.90;0.90;;;18.40;99.90;;;;;;4778446;30;20123;-91
2023/07/27 11:14:51;;;;;;;0.80;0.80;;;18.50;99.90;;;;;;4766066;30;20048;-90
2023/07/27 11:17:21;;;;;;;0.80;0.80;;;18.60;99.90;;;;;;4782656;30;20035;-94
2023/07/27 11:19:47;;;;;;;0.80;0.80;;;18.30;99.90;;;;;;4764580;30;20051;-96
2023/07/27 11:22:13;;;;;;;0.80;0.80;;;18.50;99.90;;;;;;4767394;30;20498;-92
2023/07/27 11:24:39;;;;;;;0.82;0.82;;;19.20;99.90;;;;;;4781134;29;20091;-92
2023/07/27 11:27:10;;;;;;;0.90;0.90;;;19.10;99.90;;;;;;4758688;30;20135;-93
2023/07/27 11:29:40;;;;;;;0.90;0.90;;;19.20;99.90;;;;;;4766948;30;20051;-92
2023/07/27 11:32:06;;;;;;;0.90;0.90;;;19.30;99.90;;;;;;4767017;30;20377;-96
2023/07/27 11:34:34;;;;;;;0.90;0.90;;;19.40;99.90;;;;;;4765950;30;20077;-92
2023/07/27 11:37:01;;;;;;;0.98;0.98;;;19.20;99.90;;;;;;4779870;30;20051;-90
2023/07/27 11:39:27;;;;;;;0.90;0.90;;;19.50;99.90;;;;;;4778370;29;20051;-88
2023/07/27 11:41:56;;;;;;;0.80;0.80;;;19.50;99.90;;;;;;4778747;29;20063;-95
2023/07/27 11:44:22;;;;;;;0.80;0.80;;;19.70;99.90;;;;;;4764268;30;20573;-89
2023/07/27 11:46:52;;;;;;;0.80;0.80;;;19.80;99.90;;;;;;4781668;29;20197;-92
2023/07/27 11:49:22;;;;;;;0.80;0.80;;;19.60;99.90;;;;;;4779153;29;20140;-94
2023/07/27 11:51:48;;;;;;;0.85;0.85;;;19.90;99.90;;;;;;4764164;30;20074;-89
2023/07/27 11:54:40;;;;;;;0.93;0.93;;;20.30;99.90;;;;;;4780216;30;20054;-94
2023/07/27 11:57:08;;;;;;;0.85;0.85;;;19.90;99.90;;;;;;4761516;30;20760;-94
2023/07/27 11:59:33;;;;;;;0.90;0.90;;;19.90;99.90;;;;;;4773384;29;20138;-91
2023/07/27 12:01:59;;;;;;;0.77;0.77;;;20.30;99.90;;;;;;4762854;30;20157;-92
2023/07/27 12:04:26;;;;;;;0.77;0.77;;;20.30;99.90;;;;;;4762648;30;20055;-90
2023/07/27 12:06:54;;;;;;;0.60;0.60;;;20.10;99.90;;;;;;4778106;30;20059;-88
2023/07/27 12:09:23;;;;;;;0.77;0.77;;;20.50;99.90;;;;;;4765236;30;20055;-91
2023/07/27 12:11:48;;;;;;;0.80;0.80;;;20.30;99.90;;;;;;4779764;30;20087;-88
2023/07/27 12:14:20;;;;;;;0.80;0.80;;;20.40;99.90;;;;;;4779178;30;20051;-92
2023/07/27 12:16:46;;;;;;;0.80;0.80;;;20.50;99.90;;;;;;4777356;30;20296;-89
2023/07/27 12:19:11;;;;;;;0.70;0.70;;;20.40;99.90;;;;;;4778577;30;20051;-90
2023/07/27 12:21:38;;;;;;;0.65;0.65;;;20.30;99.90;;;;;;4779522;29;20518;-90
2023/07/27 12:24:09;;;;;;;0.80;0.80;;;20.20;99.90;;;;;;4780596;30;20055;-89
2023/07/27 12:26:35;;;;;;;0.80;0.80;;;20.00;99.90;;;;;;4765181;30;20619;-88
2023/07/27 12:29:01;;;;;;;0.60;0.60;;;20.10;99.90;;;;;;4777459;30;20142;-90
2023/07/27 12:31:27;;;;;;;0.82;0.82;;;20.10;99.90;;;;;;4779616;30;20176;-89
2023/07/27 12:33:52;;;;;;;0.93;0.93;;;19.90;99.90;;;;;;4765801;30;20511;-92
2023/07/27 12:36:26;;;;;;;0.80;0.80;;;19.80;99.90;;;;;;4766812;30;20055;-93
2023/07/27 12:38:52;;;;;;;0.82;0.82;;;19.70;99.90;;;;;;4767374;30;20077;-90
2023/07/27 12:41:18;;;;;;;0.70;0.70;;;19.40;99.90;;;;;;4766585;30;20047;-90
2023/07/27 12:43:44;;;;;;;0.70;0.70;;;19.60;99.90;;;;;;4777628;30;20143;-90
2023/07/27 12:46:10;;;;;;;0.82;0.82;;;19.70;99.90;;;;;;4762056;30;20058;-88
2023/07/27 12:48:36;;;;;;;0.73;0.73;;;19.70;99.90;;;;;;4775730;29;20050;-90
2023/07/27 12:51:02;;;;;;;0.85;0.85;;;19.60;99.90;;;;;;4781310;29;20414;-90
2023/07/27 12:53:28;;;;;;;0.80;0.80;;;19.90;99.90;;;;;;4780903;30;20051;-89
2023/07/27 12:55:53;;;;;;;0.70;0.70;;;19.60;99.90;;;;;;4781949;30;20688;-88
2023/07/27 12:58:19;;;;;;;0.88;0.88;;;19.90;99.90;;;;;;4780259;29;20513;-87
2023/07/27 13:00:45;;;;;;;0.82;0.82;;;19.70;99.90;;;;;;4770025;30;20050;-92
2023/07/27 13:03:10;;;;;;;0.82;0.82;;;19.70;99.90;;;;;;4768908;30;20051;-91
2023/07/27 13:05:36;;;;;;;0.80;0.80;;;19.80;99.90;;;;;;4784329;30;20039;-91
2023/07/27 13:08:16;;;;;;;0.73;0.73;;;19.90;99.90;;;;;;4771076;30;20417;-95
2023/07/27 13:10:41;;;;;;;0.90;0.90;;;19.60;99.90;;;;;;4771648;30;20109;-90
2023/07/27 13:13:07;;;;;;;0.80;0.80;;;19.70;99.90;;;;;;4783900;30;20085;-92
2023/07/27 13:15:33;;;;;;;0.80;0.80;;;19.90;99.90;;;;;;4769672;30;20051;-92
2023/07/27 13:18:03;;;;;;;0.80;0.80;;;20.00;99.90;;;;;;4768823;30;20108;-94
2023/07/27 13:20:32;;;;;;;0.82;0.82;;;20.10;99.90;;;;;;4781828;29;20055;-89
2023/07/27 13:22:59;;;;;;;0.85;0.85;;;20.30;99.90;;;;;;4779142;30;20058;-89
2023/07/27 13:25:24;;;;;;;0.82;0.82;;;19.80;99.90;;;;;;4781325;30;20051;-89
2023/07/27 13:27:50;;;;;;;0.82;0.82;;;20.20;99.90;;;;;;4767206;30;20047;-87